Time;durP1;ratioP1;P1;durP2;ratioP2;P2;SDS_P1;SDS_P2;PMS_P1;PMS_P2;Temp;Humidity;BMP_temperature;BMP_pressure;BME280_temperature;BME280_humidity;BME280_pressure;Samples;Min_cycle;Max_cycle;Signal;HPM_P1;HPM_P2
2022/08/17 10:36:25;;;;;;;13.00;11.60;;;23.80;99.90;;;;;;5054449;28;20588;-67
2022/08/17 10:39:37;;;;;;;12.10;11.00;;;23.80;99.90;;;;;;5051312;28;20439;-67
2022/08/17 10:42:23;;;;;;;11.47;10.27;;;24.00;99.90;;;;;;5038654;28;20480;-69
2022/08/17 10:44:55;;;;;;;11.17;10.00;;;24.30;99.90;;;;;;5039131;28;20528;-69
2022/08/17 10:47:25;;;;;;;12.13;9.90;;;24.40;99.90;;;;;;5043375;28;20915;-69
2022/08/17 10:49:54;;;;;;;10.73;9.73;;;24.50;99.90;;;;;;5047622;28;20468;-69
2022/08/17 10:52:26;;;;;;;9.00;8.13;;;24.60;99.90;;;;;;5050639;28;20477;-69
2022/08/17 10:55:01;;;;;;;12.90;9.47;;;24.60;99.90;;;;;;5050537;28;20469;-68
2022/08/17 10:57:30;;;;;;;9.30;8.50;;;24.60;99.90;;;;;;5050288;28;20471;-69
2022/08/17 10:59:58;;;;;;;9.20;8.40;;;24.70;99.90;;;;;;5048092;28;20532;-69
2022/08/17 11:02:51;;;;;;;9.67;7.50;;;24.80;99.90;;;;;;5048926;28;20449;-68
2022/08/17 11:05:19;;;;;;;8.83;8.13;;;24.70;99.90;;;;;;5044815;28;20446;-69
2022/08/17 11:08:06;;;;;;;7.80;7.10;;;24.70;99.90;;;;;;5045102;28;20449;-69
2022/08/17 11:10:41;;;;;;;8.03;7.23;;;24.70;99.90;;;;;;5046383;28;20430;-68
2022/08/17 11:13:26;;;;;;;8.23;7.50;;;24.80;99.90;;;;;;5046963;28;20464;-71
2022/08/17 11:15:58;;;;;;;7.80;7.10;;;24.90;99.90;;;;;;5045146;28;20504;-70
2022/08/17 11:18:55;;;;;;;7.50;6.80;;;24.90;99.90;;;;;;5045483;28;20461;-70
2022/08/17 11:21:27;;;;;;;7.47;6.80;;;24.90;99.90;;;;;;5043717;28;20947;-71
2022/08/17 11:24:11;;;;;;;7.13;6.40;;;24.90;99.90;;;;;;5046546;28;20449;-72
2022/08/17 11:26:45;;;;;;;10.20;6.10;;;25.10;99.90;;;;;;5040364;28;20780;-71
2022/08/17 11:29:24;;;;;;;8.00;7.20;;;25.20;99.90;;;;;;5046702;28;20471;-71
2022/08/17 11:32:36;;;;;;;6.87;6.10;;;25.20;99.90;;;;;;5046135;28;20736;-72
2022/08/17 11:35:29;;;;;;;7.53;6.83;;;25.20;99.90;;;;;;5039644;28;20541;-73
2022/08/17 11:38:13;;;;;;;7.03;6.43;;;25.40;99.90;;;;;;5043357;28;20435;-72
2022/08/17 11:40:50;;;;;;;7.03;6.43;;;25.50;99.90;;;;;;5040963;28;20535;-71
2022/08/17 11:43:54;;;;;;;6.83;6.23;;;25.50;99.90;;;;;;5041686;28;20506;-71
2022/08/17 11:52:49;;;;;;;8.83;7.50;;;26.00;99.90;;;;;;5029910;28;20488;-72
2022/08/17 11:55:30;;;;;;;6.93;6.33;;;26.20;99.90;;;;;;5028974;28;20480;-70
2022/08/17 11:58:25;;;;;;;7.83;7.03;;;26.30;99.90;;;;;;5032149;28;21077;-72
2022/08/17 12:01:02;;;;;;;7.77;7.17;;;26.20;99.90;;;;;;5029908;28;20450;-72
2022/08/17 12:03:31;;;;;;;7.23;6.63;;;26.30;99.90;;;;;;5026566;28;20486;-72
2022/08/17 12:06:29;;;;;;;9.83;6.90;;;26.50;99.90;;;;;;5032778;28;20446;-71
2022/08/17 12:09:15;;;;;;;8.60;6.83;;;26.50;99.90;;;;;;5028259;28;21075;-72
2022/08/17 12:11:45;;;;;;;7.77;7.00;;;26.60;99.90;;;;;;5021359;28;20517;-73
2022/08/17 12:14:16;;;;;;;7.03;6.33;;;26.70;99.90;;;;;;5030428;28;20462;-71
2022/08/17 12:16:43;;;;;;;6.80;6.20;;;26.60;99.90;;;;;;5034400;28;20985;-72
2022/08/17 12:19:19;;;;;;;7.50;6.80;;;26.60;99.90;;;;;;5029684;28;20510;-73
2022/08/17 12:22:12;;;;;;;8.40;7.33;;;26.70;99.90;;;;;;5030212;28;20439;-73
2022/08/17 12:25:18;;;;;;;7.30;6.60;;;26.70;99.90;;;;;;5030889;28;20435;-72
2022/08/17 12:27:47;;;;;;;8.30;7.50;;;26.80;99.90;;;;;;5030388;28;20451;-72
2022/08/17 12:30:16;;;;;;;7.43;6.73;;;26.90;99.90;;;;;;5036853;28;20434;-72
2022/08/17 12:32:46;;;;;;;7.20;6.50;;;27.00;99.90;;;;;;5030894;28;20474;-72
2022/08/17 12:35:37;;;;;;;6.97;6.30;;;27.00;99.90;;;;;;5027073;28;20930;-70
2022/08/17 12:38:07;;;;;;;11.43;8.10;;;27.10;99.90;;;;;;5033935;28;20499;-71
2022/08/17 12:40:33;;;;;;;7.43;6.63;;;27.30;99.90;;;;;;5029180;28;21184;-71
2022/08/17 12:43:19;;;;;;;6.90;6.33;;;27.50;99.90;;;;;;5034909;28;20454;-73
2022/08/17 12:58:31;;;;;;;7.63;7.00;;;29.60;99.90;;;;;;4950253;28;20502;-72
2022/08/17 13:01:08;;;;;;;7.83;7.13;;;29.80;99.90;;;;;;4981471;28;20435;-71
2022/08/17 13:03:40;;;;;;;8.50;6.60;;;30.30;99.90;;;;;;4993887;28;21012;-71
2022/08/17 13:06:09;;;;;;;8.17;6.43;;;30.60;99.90;;;;;;4992416;28;20456;-71
2022/08/17 13:08:39;;;;;;;7.47;6.87;;;31.00;99.90;;;;;;4992502;28;20494;-71
2022/08/17 13:11:22;;;;;;;6.90;6.30;;;31.40;99.90;;;;;;4999971;28;20717;-71
2022/08/17 13:13:53;;;;;;;6.67;6.00;;;31.70;99.30;;;;;;4987598;28;21391;-73
2022/08/17 13:16:24;;;;;;;7.57;6.50;;;32.00;97.60;;;;;;4993823;28;20963;-71
2022/08/17 13:19:04;;;;;;;7.80;7.10;;;32.10;96.50;;;;;;4999674;28;20423;-71
2022/08/17 13:21:32;;;;;;;7.20;6.53;;;32.10;94.60;;;;;;4998342;28;20495;-72
2022/08/17 13:24:19;;;;;;;6.70;6.10;;;32.40;93.00;;;;;;4998984;28;20421;-71
2022/08/17 13:26:57;;;;;;;6.20;5.70;;;32.70;92.40;;;;;;4976588;28;20457;-69
2022/08/17 13:29:35;;;;;;;7.07;6.37;;;33.10;90.70;;;;;;4978025;28;20511;-71
2022/08/17 13:32:07;;;;;;;6.57;6.07;;;33.40;86.70;;;;;;4975251;28;20475;-71
2022/08/17 13:34:53;;;;;;;6.67;6.07;;;33.50;84.80;;;;;;4979181;28;20525;-72
2022/08/17 13:37:33;;;;;;;6.47;5.90;;;33.70;81.70;;;;;;4977915;28;20464;-72
2022/08/17 13:40:07;;;;;;;7.30;6.30;;;33.80;80.50;;;;;;4979888;28;20452;-71
2022/08/17 13:42:38;;;;;;;7.00;6.30;;;33.90;78.10;;;;;;4980084;28;20433;-71
2022/08/17 13:45:36;;;;;;;7.67;6.60;;;34.00;77.30;;;;;;4978231;28;20483;-72
2022/08/17 13:48:13;;;;;;;7.23;6.50;;;34.20;76.10;;;;;;4978969;28;20497;-71
2022/08/17 13:50:45;;;;;;;8.03;6.73;;;34.30;74.00;;;;;;4971607;28;20484;-72
2022/08/17 13:53:17;;;;;;;7.90;7.17;;;34.50;73.40;;;;;;4978422;28;20851;-72
2022/08/17 13:55:59;;;;;;;6.90;6.40;;;34.40;68.50;;;;;;4981740;28;20964;-73
2022/08/17 13:58:26;;;;;;;6.10;5.60;;;34.20;68.70;;;;;;4977798;28;21581;-71
2022/08/17 14:00:53;;;;;;;6.50;5.90;;;34.20;66.70;;;;;;4982958;28;20501;-70
2022/08/17 14:03:19;;;;;;;6.23;5.70;;;34.20;65.70;;;;;;4981963;28;20447;-71
2022/08/17 14:05:47;;;;;;;8.97;6.40;;;34.30;65.20;;;;;;4980032;28;20457;-73
2022/08/17 14:08:15;;;;;;;7.40;6.77;;;34.40;65.70;;;;;;4980457;28;20926;-73
2022/08/17 14:10:44;;;;;;;6.70;6.10;;;34.80;65.50;;;;;;4978533;28;20404;-71
2022/08/17 14:13:12;;;;;;;7.40;5.50;;;35.20;64.60;;;;;;4978985;28;20461;-72
2022/08/17 14:15:38;;;;;;;7.70;6.03;;;35.50;63.00;;;;;;4976770;28;20451;-75
2022/08/17 14:18:03;;;;;;;6.30;5.80;;;36.00;61.40;;;;;;4979435;28;20420;-75
2022/08/17 14:20:29;;;;;;;6.13;5.63;;;36.40;60.00;;;;;;4974932;28;20408;-74
2022/08/17 14:22:55;;;;;;;6.67;6.17;;;36.70;58.10;;;;;;4977623;28;20225;-74
2022/08/17 14:25:28;;;;;;;6.70;6.10;;;37.10;57.40;;;;;;4976724;28;20211;-74
2022/08/17 14:27:54;;;;;;;6.00;5.50;;;37.70;56.60;;;;;;4981338;28;20745;-75
2022/08/17 14:30:27;;;;;;;6.97;6.33;;;38.20;55.60;;;;;;4977537;28;20445;-74
2022/08/17 14:32:53;;;;;;;6.40;5.80;;;38.40;53.20;;;;;;4980729;28;20882;-72
2022/08/17 14:35:22;;;;;;;6.40;5.90;;;38.60;52.80;;;;;;4974359;28;20433;-73
2022/08/17 14:37:49;;;;;;;6.90;6.20;;;39.00;51.70;;;;;;4980922;28;20438;-73
2022/08/17 14:40:16;;;;;;;6.13;5.73;;;39.40;51.50;;;;;;4979308;28;20466;-72
2022/08/17 14:42:43;;;;;;;6.23;5.73;;;39.70;50.60;;;;;;4981979;28;20821;-71
2022/08/17 14:45:10;;;;;;;5.90;5.50;;;40.00;49.90;;;;;;4978961;28;20459;-73
2022/08/17 14:47:38;;;;;;;6.87;5.97;;;40.20;48.80;;;;;;4978246;28;20435;-72
2022/08/17 14:50:08;;;;;;;6.40;5.80;;;40.40;48.20;;;;;;4980466;28;20422;-72
2022/08/17 14:52:34;;;;;;;6.57;6.07;;;40.40;47.40;;;;;;4981828;28;20435;-72
2022/08/17 14:55:00;;;;;;;6.63;6.03;;;40.40;47.10;;;;;;4979679;28;20918;-72
2022/08/17 14:57:26;;;;;;;6.00;5.50;;;40.30;46.60;;;;;;4981510;28;20518;-72
2022/08/17 14:59:53;;;;;;;6.50;5.87;;;40.20;47.00;;;;;;4981280;28;20202;-70
2022/08/17 15:02:21;;;;;;;7.53;6.93;;;40.10;46.70;;;;;;4982827;28;20457;-70
2022/08/17 15:04:47;;;;;;;5.80;5.40;;;39.80;46.00;;;;;;4977985;28;20560;-70
2022/08/17 15:07:15;;;;;;;6.50;6.00;;;39.40;46.20;;;;;;4978033;28;20494;-70
2022/08/17 15:09:41;;;;;;;6.10;5.60;;;39.20;46.70;;;;;;4977291;28;20508;-71
2022/08/17 15:12:07;;;;;;;6.83;6.33;;;38.90;46.90;;;;;;4978241;28;20516;-69
2022/08/17 15:14:34;;;;;;;6.53;6.03;;;38.40;47.00;;;;;;4977859;28;20320;-71
2022/08/17 15:17:04;;;;;;;6.63;5.97;;;38.00;47.40;;;;;;4980689;28;20479;-72
2022/08/17 15:19:30;;;;;;;6.87;6.23;;;37.70;47.80;;;;;;4975251;28;20402;-72
2022/08/17 15:21:55;;;;;;;6.47;5.97;;;37.40;48.60;;;;;;4983574;28;20408;-72
2022/08/17 15:24:21;;;;;;;6.97;6.40;;;37.10;48.00;;;;;;4982294;28;20210;-72
2022/08/17 15:26:46;;;;;;;6.40;5.87;;;36.80;48.70;;;;;;4986915;28;20617;-70
2022/08/17 15:29:13;;;;;;;7.10;6.50;;;36.50;49.40;;;;;;4985889;28;20223;-74
2022/08/17 15:31:39;;;;;;;6.00;5.60;;;36.00;49.80;;;;;;4981613;28;20182;-72
2022/08/17 15:34:04;;;;;;;7.23;6.63;;;35.80;50.90;;;;;;4985141;28;20411;-69
2022/08/17 15:36:31;;;;;;;7.03;6.40;;;35.60;50.60;;;;;;4981728;28;20760;-70
2022/08/17 15:38:57;;;;;;;6.73;6.23;;;35.30;50.70;;;;;;4986295;28;20194;-70
2022/08/17 15:41:26;;;;;;;6.60;6.00;;;35.10;50.90;;;;;;4986361;28;20433;-70
2022/08/17 15:43:52;;;;;;;8.10;6.90;;;34.90;51.30;;;;;;4981361;28;20186;-71
2022/08/17 15:46:21;;;;;;;7.33;6.57;;;34.70;52.10;;;;;;4987512;28;20431;-71
2022/08/17 15:48:53;;;;;;;7.60;6.23;;;34.60;52.20;;;;;;4983357;28;20178;-72
2022/08/17 15:51:22;;;;;;;7.40;6.80;;;34.50;52.50;;;;;;4982607;28;20422;-72
2022/08/17 15:54:08;;;;;;;7.83;7.17;;;34.30;52.50;;;;;;4982767;28;20787;-73
2022/08/17 15:56:34;;;;;;;6.90;6.20;;;34.20;53.60;;;;;;4982732;28;20419;-73
2022/08/17 15:59:00;;;;;;;7.17;6.67;;;34.00;53.60;;;;;;4981783;28;20869;-71
2022/08/17 16:01:27;;;;;;;9.30;6.47;;;33.90;55.20;;;;;;4985731;28;20568;-70
2022/08/17 16:03:56;;;;;;;6.20;5.60;;;33.70;54.60;;;;;;4982571;28;20193;-71
2022/08/17 16:06:26;;;;;;;7.07;6.57;;;33.60;54.30;;;;;;4980627;28;20469;-71
2022/08/17 16:08:53;;;;;;;6.50;6.00;;;33.40;55.20;;;;;;4982468;28;20789;-70
2022/08/17 16:11:19;;;;;;;8.47;7.63;;;33.30;55.20;;;;;;4985586;28;21024;-72
2022/08/17 16:13:48;;;;;;;7.60;6.80;;;33.30;55.60;;;;;;4980996;28;20881;-69
2022/08/17 16:16:14;;;;;;;7.87;7.17;;;33.10;55.50;;;;;;4984139;28;20424;-71
2022/08/17 16:18:40;;;;;;;6.87;6.33;;;33.10;55.20;;;;;;4985663;28;20455;-71
2022/08/17 16:21:26;;;;;;;7.37;6.77;;;32.90;55.10;;;;;;4981049;28;20187;-71
2022/08/17 16:23:55;;;;;;;7.30;6.80;;;32.80;55.50;;;;;;4975549;28;20449;-71
2022/08/17 16:26:22;;;;;;;6.60;6.10;;;32.70;56.10;;;;;;4973510;28;20461;-71
2022/08/17 16:28:47;;;;;;;6.73;6.13;;;32.50;55.70;;;;;;4974136;28;20503;-71
2022/08/17 16:31:15;;;;;;;7.40;6.70;;;32.40;55.70;;;;;;4978196;28;21024;-71
2022/08/17 16:33:41;;;;;;;6.97;6.37;;;32.30;56.30;;;;;;4977941;28;20202;-71
2022/08/17 16:36:07;;;;;;;7.73;7.03;;;32.20;56.70;;;;;;4980755;28;20454;-73
2022/08/17 16:38:37;;;;;;;6.60;6.00;;;32.10;56.10;;;;;;4982266;28;20628;-72
2022/08/17 16:41:04;;;;;;;6.93;6.33;;;32.00;56.30;;;;;;4977792;28;20483;-71
2022/08/17 16:43:31;;;;;;;7.40;6.60;;;31.90;56.50;;;;;;4983395;28;21277;-71
2022/08/17 16:45:57;;;;;;;7.10;6.50;;;31.80;56.90;;;;;;4982565;28;20467;-70
2022/08/17 16:48:22;;;;;;;126.80;110.40;;;31.70;57.70;;;;;;4982532;28;20437;-71
2022/08/17 16:50:48;;;;;;;66.03;55.40;;;31.60;57.40;;;;;;4979976;28;20182;-71
2022/08/17 16:53:16;;;;;;;12.60;11.40;;;31.50;57.90;;;;;;4977049;28;20193;-71
2022/08/17 16:55:43;;;;;;;10.87;9.87;;;31.50;56.90;;;;;;4979856;28;20182;-74
2022/08/17 16:58:09;;;;;;;18.37;16.47;;;31.40;56.60;;;;;;4981813;28;20453;-73
2022/08/17 17:00:35;;;;;;;13.20;11.80;;;31.30;56.70;;;;;;4980561;28;21106;-73
2022/08/17 17:03:10;;;;;;;8.80;8.10;;;31.30;57.10;;;;;;4978848;28;20260;-73
2022/08/17 17:06:05;;;;;;;10.20;9.30;;;31.20;57.80;;;;;;4975609;28;20491;-71
2022/08/17 17:08:57;;;;;;;10.17;9.27;;;31.20;58.40;;;;;;4976810;28;21225;-72
2022/08/17 17:11:43;;;;;;;11.07;10.00;;;31.10;59.00;;;;;;4982509;28;20548;-73
2022/08/17 17:14:17;;;;;;;8.13;7.30;;;31.00;59.40;;;;;;4981026;28;20516;-72
2022/08/17 17:17:10;;;;;;;8.83;7.17;;;30.90;59.50;;;;;;4978349;28;20452;-72
2022/08/17 17:20:14;;;;;;;8.60;7.70;;;30.80;59.70;;;;;;4983246;28;20433;-73
2022/08/17 17:22:47;;;;;;;7.97;7.27;;;30.80;60.20;;;;;;4971808;28;20452;-72
2022/08/17 17:25:21;;;;;;;7.93;7.20;;;30.70;60.30;;;;;;4980087;28;20552;-71
2022/08/17 17:27:58;;;;;;;7.47;6.77;;;30.70;60.50;;;;;;4976677;28;20449;-72
2022/08/17 17:30:31;;;;;;;8.93;7.00;;;30.60;61.00;;;;;;4977057;28;20436;-71
2022/08/17 17:33:20;;;;;;;6.60;6.10;;;30.60;61.10;;;;;;4980645;28;20813;-71
2022/08/17 17:35:57;;;;;;;7.17;6.47;;;30.60;61.40;;;;;;4979033;28;20441;-70
2022/08/17 17:38:28;;;;;;;7.17;6.57;;;30.50;61.30;;;;;;4976322;28;20977;-71
2022/08/17 17:41:00;;;;;;;7.13;6.50;;;30.50;62.30;;;;;;4976905;28;20439;-74
2022/08/17 17:43:27;;;;;;;7.53;6.93;;;30.50;61.70;;;;;;4979020;28;20444;-72
2022/08/17 17:46:07;;;;;;;7.70;7.00;;;30.40;62.00;;;;;;4981964;28;20716;-72
2022/08/17 17:48:33;;;;;;;9.17;8.43;;;30.40;62.30;;;;;;4976859;28;20428;-71
2022/08/17 17:51:23;;;;;;;8.17;7.40;;;30.30;62.20;;;;;;4984311;28;20420;-71
2022/08/17 17:54:00;;;;;;;9.20;8.33;;;30.30;62.50;;;;;;4982194;28;20444;-71
2022/08/17 17:56:53;;;;;;;8.13;7.43;;;30.30;62.80;;;;;;4978750;28;21016;-72
2022/08/17 17:59:28;;;;;;;8.23;7.43;;;30.20;63.20;;;;;;4981790;28;20456;-73
2022/08/17 18:02:47;;;;;;;8.50;7.17;;;30.20;63.40;;;;;;4978413;28;20440;-73
2022/08/17 18:05:33;;;;;;;8.37;7.60;;;30.10;64.00;;;;;;4979267;28;20513;-72
2022/08/17 18:08:43;;;;;;;8.30;7.60;;;30.00;64.60;;;;;;4979973;28;20446;-73
2022/08/17 18:11:26;;;;;;;8.10;7.30;;;30.00;65.30;;;;;;4980950;28;20864;-72
2022/08/17 18:14:19;;;;;;;10.33;7.60;;;29.90;65.50;;;;;;4979479;28;20433;-72
2022/08/17 18:16:48;;;;;;;8.57;7.73;;;29.90;66.20;;;;;;4969584;28;20490;-72
2022/08/17 18:19:23;;;;;;;8.23;7.43;;;29.90;66.10;;;;;;4975431;28;20434;-73
2022/08/17 18:22:01;;;;;;;10.03;7.97;;;29.80;66.50;;;;;;4976365;28;20471;-72
2022/08/17 18:24:30;;;;;;;9.67;8.77;;;29.80;66.60;;;;;;4979027;28;20464;-71
2022/08/17 18:26:58;;;;;;;9.50;8.50;;;29.80;66.80;;;;;;4981572;28;20448;-72
2022/08/17 18:29:26;;;;;;;9.90;7.60;;;29.70;67.00;;;;;;4975332;28;20441;-74
2022/08/17 18:32:22;;;;;;;9.03;8.00;;;29.70;67.30;;;;;;4979209;28;21180;-72
2022/08/17 18:34:57;;;;;;;10.57;8.40;;;29.60;68.00;;;;;;4977406;28;20437;-71
2022/08/17 18:37:46;;;;;;;8.90;8.00;;;29.50;68.10;;;;;;4977713;28;20868;-72
2022/08/17 18:40:18;;;;;;;12.40;8.07;;;29.50;68.40;;;;;;4978165;28;20449;-71
2022/08/17 18:42:54;;;;;;;10.53;9.53;;;29.50;68.40;;;;;;4981209;28;20437;-71
2022/08/17 18:45:49;;;;;;;9.63;8.73;;;29.40;68.40;;;;;;4976956;28;20475;-73
2022/08/17 18:48:47;;;;;;;14.63;10.63;;;29.40;68.60;;;;;;4977017;28;20433;-72
2022/08/17 18:51:33;;;;;;;11.27;10.17;;;29.30;69.00;;;;;;4977764;28;20521;-73
2022/08/17 18:54:01;;;;;;;9.27;8.30;;;29.20;69.10;;;;;;4979640;28;20429;-72
2022/08/17 18:56:33;;;;;;;10.00;9.00;;;29.20;69.40;;;;;;4980567;28;20467;-74
2022/08/17 18:59:21;;;;;;;9.90;9.00;;;29.10;69.70;;;;;;4979078;28;20453;-73
2022/08/17 19:02:01;;;;;;;11.53;8.53;;;29.10;70.20;;;;;;4981968;28;20427;-73
2022/08/17 19:04:54;;;;;;;8.97;8.17;;;29.00;70.40;;;;;;4984314;28;20463;-72
2022/08/17 19:07:20;;;;;;;12.83;8.43;;;29.00;70.70;;;;;;4978859;28;20448;-71
2022/08/17 19:10:08;;;;;;;8.27;7.57;;;29.00;71.30;;;;;;4980778;28;20801;-71
2022/08/17 19:12:44;;;;;;;12.90;7.70;;;28.90;71.40;;;;;;4982568;28;20822;-72
2022/08/17 19:15:14;;;;;;;10.60;8.27;;;28.90;71.40;;;;;;4981553;28;20442;-73
2022/08/17 19:17:54;;;;;;;9.93;8.83;;;28.90;71.80;;;;;;4981021;28;20498;-73
2022/08/17 19:20:30;;;;;;;11.93;8.33;;;28.80;72.00;;;;;;4982801;28;20487;-74
2022/08/17 19:23:25;;;;;;;9.97;8.97;;;28.80;72.10;;;;;;4981403;28;20523;-73
2022/08/17 19:25:53;;;;;;;13.43;9.40;;;28.80;72.40;;;;;;4980443;28;20471;-73
2022/08/17 19:28:27;;;;;;;13.37;9.33;;;28.70;72.40;;;;;;4981631;28;21001;-71
2022/08/17 19:31:02;;;;;;;11.97;9.40;;;28.70;72.60;;;;;;4980890;28;20982;-70
2022/08/17 19:33:28;;;;;;;9.40;8.53;;;28.70;72.60;;;;;;4986108;28;20938;-69
2022/08/17 19:36:25;;;;;;;10.63;8.60;;;28.60;72.60;;;;;;4982108;28;20468;-69
2022/08/17 19:39:18;;;;;;;12.40;9.60;;;28.60;73.20;;;;;;4983324;28;21040;-71
2022/08/17 19:42:04;;;;;;;11.83;9.67;;;28.60;73.40;;;;;;4977653;28;20519;-71
2022/08/17 19:44:30;;;;;;;10.63;9.40;;;28.50;73.50;;;;;;4984794;28;20464;-72
2022/08/17 19:47:08;;;;;;;10.07;8.70;;;28.50;73.80;;;;;;4981465;28;20492;-72
2022/08/17 19:50:10;;;;;;;10.57;9.47;;;28.50;74.00;;;;;;4980508;28;20554;-72
2022/08/17 19:52:52;;;;;;;11.90;9.00;;;28.40;74.30;;;;;;4984091;28;20662;-71
2022/08/17 19:55:47;;;;;;;9.73;8.60;;;28.40;74.50;;;;;;4984816;28;20869;-70
2022/08/17 19:58:27;;;;;;;9.33;8.53;;;28.30;74.90;;;;;;4979840;28;20961;-70
2022/08/17 20:00:53;;;;;;;9.30;8.27;;;28.30;75.10;;;;;;4981614;28;20486;-71
2022/08/17 20:03:30;;;;;;;11.30;9.20;;;28.30;75.30;;;;;;4983404;28;20460;-70
2022/08/17 20:06:06;;;;;;;9.17;8.37;;;28.20;75.30;;;;;;4980565;28;20693;-71
2022/08/17 20:08:58;;;;;;;10.07;9.07;;;28.20;76.20;;;;;;4982340;28;20440;-71
2022/08/17 20:11:32;;;;;;;9.60;8.70;;;28.10;76.30;;;;;;4984334;28;20452;-71
2022/08/17 20:14:05;;;;;;;10.93;9.60;;;28.10;77.20;;;;;;4978379;28;20432;-70
2022/08/17 20:16:32;;;;;;;13.40;11.80;;;28.00;77.30;;;;;;4980503;28;20892;-72
2022/08/17 20:19:18;;;;;;;11.23;10.00;;;28.00;77.90;;;;;;4980793;28;20540;-72
2022/08/17 20:22:06;;;;;;;11.23;8.80;;;28.00;79.30;;;;;;4982916;28;20976;-74
2022/08/17 20:24:36;;;;;;;8.60;7.53;;;27.90;79.00;;;;;;4979176;28;20460;-72
2022/08/17 20:27:24;;;;;;;9.23;8.33;;;27.90;79.30;;;;;;4978697;28;20565;-72
2022/08/17 20:30:10;;;;;;;10.60;9.60;;;27.80;80.00;;;;;;4981266;28;20495;-72
2022/08/17 20:32:51;;;;;;;8.40;7.70;;;27.70;80.30;;;;;;4976249;28;20417;-72
2022/08/17 20:35:23;;;;;;;9.80;7.43;;;27.60;80.80;;;;;;4979559;28;20441;-72
2022/08/17 20:37:53;;;;;;;9.63;8.73;;;27.70;81.00;;;;;;4983856;28;20525;-72
2022/08/17 20:40:23;;;;;;;11.43;7.77;;;27.60;80.80;;;;;;4984359;28;20468;-72
2022/08/17 20:42:48;;;;;;;10.90;7.93;;;27.60;80.60;;;;;;4980737;28;20441;-70
2022/08/17 20:45:20;;;;;;;10.07;7.60;;;27.50;80.50;;;;;;4981093;28;20460;-70
2022/08/17 20:47:59;;;;;;;8.70;7.57;;;27.50;81.10;;;;;;4975683;28;20577;-69
2022/08/17 20:50:27;;;;;;;8.73;7.93;;;27.40;81.40;;;;;;4978755;28;20447;-68
2022/08/17 20:53:06;;;;;;;9.70;8.80;;;27.40;82.10;;;;;;4980371;28;20579;-68
2022/08/17 20:55:34;;;;;;;9.93;7.80;;;27.30;82.50;;;;;;4982221;28;20523;-68
2022/08/17 20:58:15;;;;;;;9.90;8.30;;;27.20;83.30;;;;;;4979365;28;20469;-69
2022/08/17 21:00:44;;;;;;;8.77;7.87;;;27.10;84.10;;;;;;4977096;28;20502;-70
2022/08/17 21:03:22;;;;;;;9.17;8.30;;;27.00;84.80;;;;;;4982913;28;20479;-67
2022/08/17 21:06:04;;;;;;;8.20;7.43;;;27.00;85.30;;;;;;4974118;28;20848;-66
2022/08/17 21:08:56;;;;;;;9.17;8.17;;;27.10;85.10;;;;;;4980163;28;20492;-66
2022/08/17 21:11:28;;;;;;;8.53;7.53;;;27.00;85.60;;;;;;4980931;28;20429;-66
2022/08/17 21:14:16;;;;;;;13.10;8.00;;;26.80;86.50;;;;;;4982461;28;20841;-66
2022/08/17 21:17:03;;;;;;;8.97;8.17;;;26.70;86.90;;;;;;4978940;28;20461;-67
2022/08/17 21:19:53;;;;;;;8.70;7.90;;;26.70;87.50;;;;;;4977993;28;20999;-66
2022/08/17 21:22:32;;;;;;;9.17;8.47;;;26.50;88.20;;;;;;4980590;28;20469;-67
2022/08/17 21:25:31;;;;;;;9.40;7.60;;;26.40;89.30;;;;;;4981746;28;20480;-67
2022/08/17 21:28:20;;;;;;;8.93;7.63;;;26.40;89.70;;;;;;4967003;28;20496;-67
2022/08/17 21:30:57;;;;;;;8.13;7.30;;;26.30;90.20;;;;;;4979520;28;20451;-72
2022/08/17 21:33:31;;;;;;;8.50;7.70;;;26.30;90.60;;;;;;4979927;28;20997;-75
2022/08/17 21:36:10;;;;;;;8.20;7.50;;;26.40;90.60;;;;;;4982083;28;20706;-75
2022/08/17 21:38:50;;;;;;;9.17;8.27;;;26.40;90.90;;;;;;4982724;28;20548;-75
2022/08/17 21:41:32;;;;;;;8.57;7.80;;;26.40;91.10;;;;;;4981060;28;20491;-74
2022/08/17 21:44:12;;;;;;;9.20;8.10;;;26.30;91.60;;;;;;4980697;28;21049;-75
2022/08/17 21:46:41;;;;;;;8.13;7.27;;;26.30;92.40;;;;;;4976167;28;20913;-74
2022/08/17 21:49:11;;;;;;;8.83;8.03;;;26.20;92.90;;;;;;4980942;28;20536;-74
2022/08/17 21:51:52;;;;;;;8.30;7.40;;;26.10;93.30;;;;;;4977453;28;20440;-75
2022/08/17 21:54:30;;;;;;;7.67;6.97;;;25.90;93.70;;;;;;4980370;28;20449;-75
2022/08/17 21:56:58;;;;;;;8.63;7.43;;;25.80;93.70;;;;;;4979293;28;20451;-75
2022/08/17 21:59:30;;;;;;;7.43;6.70;;;25.80;94.20;;;;;;4981601;28;20491;-74
2022/08/17 22:02:07;;;;;;;7.30;6.73;;;25.70;94.30;;;;;;4975689;28;20490;-75
2022/08/17 22:04:39;;;;;;;7.20;6.50;;;25.70;94.30;;;;;;4979859;28;20824;-75
2022/08/17 22:07:11;;;;;;;6.97;6.30;;;25.60;94.30;;;;;;4976755;28;20461;-74
2022/08/17 22:09:45;;;;;;;6.90;6.30;;;25.50;94.10;;;;;;4968677;28;20531;-74
2022/08/17 22:12:19;;;;;;;6.97;6.30;;;25.50;94.10;;;;;;4973600;28;20445;-75
2022/08/17 22:14:59;;;;;;;6.80;6.20;;;25.50;94.20;;;;;;4975040;28;20452;-75
2022/08/17 22:17:39;;;;;;;6.70;6.10;;;25.50;94.20;;;;;;4976629;28;20886;-75
2022/08/17 22:20:14;;;;;;;6.40;5.63;;;25.40;94.40;;;;;;4975011;28;20505;-75
2022/08/17 22:26:17;;;;;;;7.73;6.93;;;25.40;94.60;;;;;;4975784;28;20574;-75
2022/08/17 22:28:48;;;;;;;8.00;6.77;;;25.30;95.00;;;;;;4960990;28;20445;-74
2022/08/17 22:31:16;;;;;;;8.40;6.13;;;25.30;95.50;;;;;;4972321;28;20446;-76
2022/08/17 22:33:49;;;;;;;6.87;6.27;;;25.20;95.80;;;;;;4975776;28;20479;-75
2022/08/17 22:36:30;;;;;;;5.93;5.43;;;25.20;96.40;;;;;;4985347;28;20976;-75
2022/08/17 22:38:59;;;;;;;6.83;6.10;;;25.00;96.90;;;;;;4971963;28;20768;-74
2022/08/17 22:41:33;;;;;;;6.67;6.00;;;24.90;97.30;;;;;;4973898;28;20445;-74
2022/08/17 22:44:28;;;;;;;6.47;5.87;;;24.80;98.20;;;;;;4975000;28;22529;-75
2022/08/17 22:47:15;;;;;;;7.53;6.10;;;24.70;97.70;;;;;;4975092;28;20495;-75
2022/08/17 22:49:55;;;;;;;7.50;5.83;;;24.70;97.80;;;;;;4971975;28;20467;-73
2022/08/17 22:59:19;;;;;;;7.27;6.57;;;24.60;97.90;;;;;;4969844;28;20436;-73
2022/08/17 23:01:31;;;;;;;6.73;6.10;;;24.30;99.40;;;;;;4973736;28;20512;-76
2022/08/17 23:04:06;;;;;;;6.30;5.80;;;24.30;99.90;;;;;;4980799;28;20441;-77
2022/08/17 23:06:32;;;;;;;6.67;5.70;;;24.20;99.90;;;;;;4973491;28;21267;-76
2022/08/17 23:09:01;;;;;;;6.90;6.30;;;24.00;99.90;;;;;;4978284;28;20861;-76
2022/08/17 23:11:34;;;;;;;7.20;6.60;;;24.10;99.90;;;;;;4977571;28;20425;-74
2022/08/17 23:14:00;;;;;;;7.00;6.30;;;24.00;99.90;;;;;;4979387;28;20467;-75
2022/08/17 23:16:28;;;;;;;6.50;5.90;;;24.00;99.90;;;;;;4983651;28;20578;-74
2022/08/17 23:18:54;;;;;;;6.90;6.30;;;23.90;99.90;;;;;;4972585;28;20763;-75
2022/08/17 23:21:22;;;;;;;10.10;6.73;;;23.80;99.90;;;;;;4971216;28;20524;-75
2022/08/17 23:23:49;;;;;;;7.07;6.47;;;23.70;99.90;;;;;;4975548;28;20820;-74
2022/08/17 23:26:19;;;;;;;7.60;6.10;;;23.70;99.90;;;;;;4974191;28;20559;-75
2022/08/17 23:28:44;;;;;;;8.00;7.30;;;23.70;99.90;;;;;;4974259;28;20436;-75
2022/08/17 23:31:15;;;;;;;7.07;6.43;;;23.70;99.90;;;;;;4972087;28;20441;-76
2022/08/17 23:33:41;;;;;;;9.00;6.80;;;23.60;99.90;;;;;;4976361;28;20750;-75
2022/08/17 23:36:08;;;;;;;7.50;6.80;;;23.50;99.90;;;;;;4975416;28;20510;-75
2022/08/17 23:38:34;;;;;;;7.00;6.40;;;23.40;99.90;;;;;;4971146;28;20489;-74
2022/08/17 23:41:06;;;;;;;7.80;7.00;;;23.40;99.90;;;;;;4972688;28;20957;-75
2022/08/17 23:43:32;;;;;;;6.43;5.83;;;23.50;99.90;;;;;;4975026;28;20450;-75
2022/08/17 23:45:59;;;;;;;7.10;6.50;;;23.40;99.90;;;;;;4982340;28;20866;-75
2022/08/17 23:48:26;;;;;;;7.27;6.67;;;23.40;99.90;;;;;;4980008;28;20186;-75
2022/08/17 23:50:53;;;;;;;6.50;5.80;;;23.40;99.90;;;;;;4978726;28;20466;-75
2022/08/17 23:53:19;;;;;;;7.13;6.50;;;23.30;99.90;;;;;;4972249;28;20977;-74
2022/08/17 23:55:44;;;;;;;7.33;6.20;;;23.40;99.90;;;;;;4976350;28;20483;-74
2022/08/17 23:58:10;;;;;;;6.57;5.97;;;23.40;99.90;;;;;;4975369;28;20800;-74
